sensor_id;sensor_type;location;lat;lon;timestamp;P1;durP1;ratioP1;P2;durP2;ratioP2
39674;SDS011;27790;50.840;4.386;2023-04-24T00:00:25;16.88;;;10.60;;
39674;SDS011;27790;50.840;4.386;2023-04-24T00:02:50;21.45;;;9.93;;
39674;SDS011;27790;50.840;4.386;2023-04-24T00:05:16;15.30;;;9.20;;
39674;SDS011;27790;50.840;4.386;2023-04-24T00:07:43;17.95;;;10.05;;
39674;SDS011;27790;50.840;4.386;2023-04-24T00:10:09;17.67;;;10.55;;
39674;SDS011;27790;50.840;4.386;2023-04-24T00:12:36;20.35;;;9.32;;
39674;SDS011;27790;50.840;4.386;2023-04-24T00:15:02;20.40;;;10.43;;
39674;SDS011;27790;50.840;4.386;2023-04-24T00:17:28;19.95;;;11.52;;
39674;SDS011;27790;50.840;4.386;2023-04-24T00:19:53;19.48;;;10.80;;
39674;SDS011;27790;50.840;4.386;2023-04-24T00:22:26;20.55;;;11.57;;
39674;SDS011;27790;50.840;4.386;2023-04-24T00:24:53;23.98;;;10.80;;
39674;SDS011;27790;50.840;4.386;2023-04-24T00:27:19;17.77;;;11.23;;
39674;SDS011;27790;50.840;4.386;2023-04-24T00:29:45;25.80;;;11.88;;
39674;SDS011;27790;50.840;4.386;2023-04-24T00:32:11;20.20;;;10.05;;
39674;SDS011;27790;50.840;4.386;2023-04-24T00:34:36;18.33;;;10.85;;
39674;SDS011;27790;50.840;4.386;2023-04-24T00:37:02;23.67;;;11.48;;
39674;SDS011;27790;50.840;4.386;2023-04-24T00:39:28;18.92;;;11.60;;
39674;SDS011;27790;50.840;4.386;2023-04-24T00:41:54;16.73;;;11.15;;
39674;SDS011;27790;50.840;4.386;2023-04-24T00:44:20;19.15;;;11.50;;
39674;SDS011;27790;50.840;4.386;2023-04-24T00:46:46;24.20;;;11.25;;
39674;SDS011;27790;50.840;4.386;2023-04-24T00:49:12;23.90;;;11.10;;
39674;SDS011;27790;50.840;4.386;2023-04-24T00:51:39;20.13;;;10.60;;
39674;SDS011;27790;50.840;4.386;2023-04-24T00:54:05;25.80;;;11.80;;
39674;SDS011;27790;50.840;4.386;2023-04-24T00:56:31;17.88;;;10.50;;
39674;SDS011;27790;50.840;4.386;2023-04-24T00:58:57;21.70;;;10.82;;
39674;SDS011;27790;50.840;4.386;2023-04-24T01:01:23;19.45;;;10.98;;
39674;SDS011;27790;50.840;4.386;2023-04-24T01:03:49;24.67;;;10.98;;
39674;SDS011;27790;50.840;4.386;2023-04-24T01:06:16;22.02;;;10.82;;
39674;SDS011;27790;50.840;4.386;2023-04-24T01:08:43;23.27;;;11.82;;
39674;SDS011;27790;50.840;4.386;2023-04-24T01:11:10;24.85;;;10.52;;
39674;SDS011;27790;50.840;4.386;2023-04-24T01:13:36;21.27;;;11.65;;
39674;SDS011;27790;50.840;4.386;2023-04-24T01:16:02;20.58;;;10.95;;
39674;SDS011;27790;50.840;4.386;2023-04-24T01:18:28;17.42;;;9.90;;
39674;SDS011;27790;50.840;4.386;2023-04-24T01:20:54;21.75;;;10.65;;
39674;SDS011;27790;50.840;4.386;2023-04-24T01:23:23;18.45;;;10.50;;
39674;SDS011;27790;50.840;4.386;2023-04-24T01:25:49;21.02;;;11.80;;
39674;SDS011;27790;50.840;4.386;2023-04-24T01:28:16;18.60;;;10.32;;
39674;SDS011;27790;50.840;4.386;2023-04-24T01:30:42;20.25;;;10.55;;
39674;SDS011;27790;50.840;4.386;2023-04-24T01:33:08;15.32;;;10.13;;
39674;SDS011;27790;50.840;4.386;2023-04-24T01:35:35;21.08;;;10.40;;
39674;SDS011;27790;50.840;4.386;2023-04-24T01:38:02;16.73;;;10.27;;
39674;SDS011;27790;50.840;4.386;2023-04-24T01:40:28;13.40;;;9.00;;
39674;SDS011;27790;50.840;4.386;2023-04-24T01:42:53;14.93;;;8.90;;
39674;SDS011;27790;50.840;4.386;2023-04-24T01:45:20;15.77;;;8.77;;
39674;SDS011;27790;50.840;4.386;2023-04-24T01:47:45;20.77;;;9.27;;
39674;SDS011;27790;50.840;4.386;2023-04-24T01:50:12;22.45;;;9.13;;
39674;SDS011;27790;50.840;4.386;2023-04-24T01:52:38;18.92;;;9.73;;
39674;SDS011;27790;50.840;4.386;2023-04-24T01:55:04;14.63;;;9.27;;
39674;SDS011;27790;50.840;4.386;2023-04-24T01:57:31;20.80;;;10.07;;
39674;SDS011;27790;50.840;4.386;2023-04-24T01:59:57;15.40;;;9.93;;
39674;SDS011;27790;50.840;4.386;2023-04-24T02:02:23;14.65;;;9.35;;
39674;SDS011;27790;50.840;4.386;2023-04-24T02:04:49;18.20;;;10.55;;
39674;SDS011;27790;50.840;4.386;2023-04-24T02:07:15;16.38;;;9.27;;
39674;SDS011;27790;50.840;4.386;2023-04-24T02:09:41;14.07;;;10.43;;
39674;SDS011;27790;50.840;4.386;2023-04-24T02:12:07;18.30;;;11.05;;
39674;SDS011;27790;50.840;4.386;2023-04-24T02:14:32;21.35;;;12.45;;
39674;SDS011;27790;50.840;4.386;2023-04-24T02:16:58;20.88;;;11.73;;
39674;SDS011;27790;50.840;4.386;2023-04-24T02:19:24;19.15;;;12.45;;
39674;SDS011;27790;50.840;4.386;2023-04-24T02:21:49;17.67;;;11.63;;
39674;SDS011;27790;50.840;4.386;2023-04-24T02:24:15;21.80;;;13.77;;
39674;SDS011;27790;50.840;4.386;2023-04-24T02:26:41;23.25;;;11.88;;
39674;SDS011;27790;50.840;4.386;2023-04-24T02:29:06;21.15;;;12.13;;
39674;SDS011;27790;50.840;4.386;2023-04-24T02:31:32;20.08;;;12.00;;
39674;SDS011;27790;50.840;4.386;2023-04-24T02:33:58;22.27;;;12.20;;
39674;SDS011;27790;50.840;4.386;2023-04-24T02:36:24;19.35;;;12.38;;
39674;SDS011;27790;50.840;4.386;2023-04-24T02:38:50;17.45;;;11.68;;
39674;SDS011;27790;50.840;4.386;2023-04-24T02:41:16;15.63;;;10.60;;
39674;SDS011;27790;50.840;4.386;2023-04-24T02:43:42;18.13;;;11.25;;
39674;SDS011;27790;50.840;4.386;2023-04-24T02:46:07;18.45;;;10.63;;
39674;SDS011;27790;50.840;4.386;2023-04-24T02:48:33;15.88;;;9.88;;
39674;SDS011;27790;50.840;4.386;2023-04-24T02:50:59;18.17;;;10.70;;
39674;SDS011;27790;50.840;4.386;2023-04-24T02:53:24;14.27;;;9.68;;
39674;SDS011;27790;50.840;4.386;2023-04-24T02:55:50;19.13;;;10.73;;
39674;SDS011;27790;50.840;4.386;2023-04-24T02:58:16;15.73;;;9.88;;
39674;SDS011;27790;50.840;4.386;2023-04-24T03:00:42;25.60;;;10.20;;
39674;SDS011;27790;50.840;4.386;2023-04-24T03:03:08;16.92;;;9.88;;
39674;SDS011;27790;50.840;4.386;2023-04-24T03:05:34;16.50;;;10.45;;
39674;SDS011;27790;50.840;4.386;2023-04-24T03:07:59;19.63;;;9.63;;
39674;SDS011;27790;50.840;4.386;2023-04-24T03:10:25;18.25;;;9.38;;
39674;SDS011;27790;50.840;4.386;2023-04-24T03:12:51;12.93;;;9.73;;
39674;SDS011;27790;50.840;4.386;2023-04-24T03:15:16;21.40;;;10.00;;
39674;SDS011;27790;50.840;4.386;2023-04-24T03:17:42;12.50;;;8.63;;
39674;SDS011;27790;50.840;4.386;2023-04-24T03:20:08;13.65;;;8.38;;
39674;SDS011;27790;50.840;4.386;2023-04-24T03:22:34;16.95;;;8.88;;
39674;SDS011;27790;50.840;4.386;2023-04-24T03:25:00;8.95;;;6.82;;
39674;SDS011;27790;50.840;4.386;2023-04-24T03:27:26;15.57;;;8.05;;
39674;SDS011;27790;50.840;4.386;2023-04-24T03:29:52;13.85;;;8.10;;
39674;SDS011;27790;50.840;4.386;2023-04-24T03:32:20;14.52;;;7.95;;
39674;SDS011;27790;50.840;4.386;2023-04-24T03:34:47;18.35;;;8.70;;
39674;SDS011;27790;50.840;4.386;2023-04-24T03:37:13;10.90;;;8.45;;
39674;SDS011;27790;50.840;4.386;2023-04-24T03:39:38;13.73;;;7.82;;
39674;SDS011;27790;50.840;4.386;2023-04-24T03:42:04;17.25;;;8.02;;
39674;SDS011;27790;50.840;4.386;2023-04-24T03:44:30;14.50;;;8.07;;
39674;SDS011;27790;50.840;4.386;2023-04-24T03:46:55;14.50;;;8.00;;
39674;SDS011;27790;50.840;4.386;2023-04-24T03:49:22;10.38;;;7.05;;
39674;SDS011;27790;50.840;4.386;2023-04-24T03:51:48;11.82;;;7.80;;
39674;SDS011;27790;50.840;4.386;2023-04-24T03:54:13;12.15;;;7.15;;
39674;SDS011;27790;50.840;4.386;2023-04-24T03:56:39;7.28;;;6.53;;
39674;SDS011;27790;50.840;4.386;2023-04-24T03:59:05;11.20;;;7.38;;
39674;SDS011;27790;50.840;4.386;2023-04-24T04:01:30;14.93;;;6.63;;
39674;SDS011;27790;50.840;4.386;2023-04-24T04:03:56;11.88;;;6.82;;
39674;SDS011;27790;50.840;4.386;2023-04-24T04:06:22;10.05;;;5.95;;
39674;SDS011;27790;50.840;4.386;2023-04-24T04:08:47;9.57;;;6.40;;
39674;SDS011;27790;50.840;4.386;2023-04-24T04:11:13;6.43;;;5.35;;
39674;SDS011;27790;50.840;4.386;2023-04-24T04:13:39;11.45;;;6.00;;
39674;SDS011;27790;50.840;4.386;2023-04-24T04:16:04;12.50;;;6.75;;
39674;SDS011;27790;50.840;4.386;2023-04-24T04:18:30;6.60;;;5.50;;
39674;SDS011;27790;50.840;4.386;2023-04-24T04:20:56;6.28;;;4.70;;
39674;SDS011;27790;50.840;4.386;2023-04-24T04:23:22;8.63;;;5.57;;
39674;SDS011;27790;50.840;4.386;2023-04-24T04:25:48;5.88;;;5.28;;
39674;SDS011;27790;50.840;4.386;2023-04-24T04:28:14;5.57;;;4.45;;
39674;SDS011;27790;50.840;4.386;2023-04-24T04:30:40;9.80;;;5.28;;
39674;SDS011;27790;50.840;4.386;2023-04-24T04:33:06;8.88;;;5.15;;
39674;SDS011;27790;50.840;4.386;2023-04-24T04:35:33;9.48;;;5.45;;
39674;SDS011;27790;50.840;4.386;2023-04-24T04:37:59;5.65;;;4.50;;
39674;SDS011;27790;50.840;4.386;2023-04-24T04:40:25;8.70;;;4.70;;
39674;SDS011;27790;50.840;4.386;2023-04-24T04:42:52;7.55;;;4.97;;
39674;SDS011;27790;50.840;4.386;2023-04-24T04:45:18;5.75;;;4.78;;
39674;SDS011;27790;50.840;4.386;2023-04-24T04:47:45;6.15;;;4.60;;
39674;SDS011;27790;50.840;4.386;2023-04-24T04:50:11;7.97;;;5.13;;
39674;SDS011;27790;50.840;4.386;2023-04-24T04:52:37;10.93;;;5.63;;
39674;SDS011;27790;50.840;4.386;2023-04-24T04:55:02;6.72;;;5.28;;
39674;SDS011;27790;50.840;4.386;2023-04-24T04:57:28;8.98;;;5.60;;
39674;SDS011;27790;50.840;4.386;2023-04-24T04:59:55;9.35;;;6.45;;
39674;SDS011;27790;50.840;4.386;2023-04-24T05:02:20;8.40;;;6.43;;
39674;SDS011;27790;50.840;4.386;2023-04-24T05:04:46;11.38;;;6.88;;
39674;SDS011;27790;50.840;4.386;2023-04-24T05:07:12;12.25;;;7.80;;
39674;SDS011;27790;50.840;4.386;2023-04-24T05:09:37;12.55;;;7.35;;
39674;SDS011;27790;50.840;4.386;2023-04-24T05:12:03;14.95;;;8.63;;
39674;SDS011;27790;50.840;4.386;2023-04-24T05:14:29;10.43;;;7.88;;
39674;SDS011;27790;50.840;4.386;2023-04-24T05:16:54;13.82;;;9.10;;
39674;SDS011;27790;50.840;4.386;2023-04-24T05:19:20;18.30;;;9.75;;
39674;SDS011;27790;50.840;4.386;2023-04-24T05:21:45;15.45;;;8.90;;
39674;SDS011;27790;50.840;4.386;2023-04-24T05:24:11;16.17;;;9.73;;
39674;SDS011;27790;50.840;4.386;2023-04-24T05:26:37;19.00;;;9.95;;
39674;SDS011;27790;50.840;4.386;2023-04-24T05:29:02;14.60;;;8.13;;
39674;SDS011;27790;50.840;4.386;2023-04-24T05:31:28;13.43;;;8.70;;
39674;SDS011;27790;50.840;4.386;2023-04-24T05:33:54;15.50;;;8.57;;
39674;SDS011;27790;50.840;4.386;2023-04-24T05:36:20;26.50;;;8.65;;
39674;SDS011;27790;50.840;4.386;2023-04-24T05:38:45;21.60;;;9.90;;
39674;SDS011;27790;50.840;4.386;2023-04-24T05:41:11;11.25;;;8.85;;
39674;SDS011;27790;50.840;4.386;2023-04-24T05:43:36;17.58;;;8.38;;
39674;SDS011;27790;50.840;4.386;2023-04-24T05:46:02;20.27;;;9.90;;
39674;SDS011;27790;50.840;4.386;2023-04-24T05:48:28;14.00;;;8.25;;
39674;SDS011;27790;50.840;4.386;2023-04-24T05:50:53;20.45;;;9.10;;
39674;SDS011;27790;50.840;4.386;2023-04-24T05:53:19;16.63;;;8.77;;
39674;SDS011;27790;50.840;4.386;2023-04-24T05:55:47;17.20;;;10.77;;
39674;SDS011;27790;50.840;4.386;2023-04-24T05:58:12;18.63;;;9.13;;
39674;SDS011;27790;50.840;4.386;2023-04-24T06:00:38;18.02;;;8.65;;
39674;SDS011;27790;50.840;4.386;2023-04-24T06:03:07;14.48;;;8.93;;
39674;SDS011;27790;50.840;4.386;2023-04-24T06:05:33;18.33;;;10.30;;
39674;SDS011;27790;50.840;4.386;2023-04-24T06:07:59;18.23;;;9.52;;
39674;SDS011;27790;50.840;4.386;2023-04-24T06:10:26;16.27;;;10.73;;
39674;SDS011;27790;50.840;4.386;2023-04-24T06:12:52;15.60;;;9.57;;
39674;SDS011;27790;50.840;4.386;2023-04-24T06:15:21;19.25;;;8.93;;
39674;SDS011;27790;50.840;4.386;2023-04-24T06:17:47;15.77;;;9.32;;
39674;SDS011;27790;50.840;4.386;2023-04-24T06:20:12;14.32;;;8.65;;
39674;SDS011;27790;50.840;4.386;2023-04-24T06:22:38;15.95;;;10.07;;
39674;SDS011;27790;50.840;4.386;2023-04-24T06:25:05;18.15;;;9.65;;
39674;SDS011;27790;50.840;4.386;2023-04-24T06:27:31;34.97;;;11.32;;
39674;SDS011;27790;50.840;4.386;2023-04-24T06:29:56;16.50;;;10.65;;
39674;SDS011;27790;50.840;4.386;2023-04-24T06:32:22;20.45;;;10.50;;
39674;SDS011;27790;50.840;4.386;2023-04-24T06:34:49;17.35;;;9.23;;
39674;SDS011;27790;50.840;4.386;2023-04-24T06:37:15;29.60;;;12.07;;
39674;SDS011;27790;50.840;4.386;2023-04-24T06:39:41;20.63;;;11.27;;
39674;SDS011;27790;50.840;4.386;2023-04-24T06:42:07;20.27;;;11.27;;
39674;SDS011;27790;50.840;4.386;2023-04-24T06:44:35;17.60;;;10.27;;
39674;SDS011;27790;50.840;4.386;2023-04-24T06:47:05;24.10;;;12.15;;
39674;SDS011;27790;50.840;4.386;2023-04-24T06:49:32;16.08;;;11.07;;
39674;SDS011;27790;50.840;4.386;2023-04-24T06:51:58;21.38;;;11.02;;
39674;SDS011;27790;50.840;4.386;2023-04-24T06:54:23;18.00;;;12.05;;
39674;SDS011;27790;50.840;4.386;2023-04-24T06:56:49;22.98;;;12.13;;
39674;SDS011;27790;50.840;4.386;2023-04-24T06:59:16;28.08;;;13.05;;
39674;SDS011;27790;50.840;4.386;2023-04-24T07:01:44;25.17;;;11.75;;
39674;SDS011;27790;50.840;4.386;2023-04-24T07:04:10;21.85;;;11.60;;
39674;SDS011;27790;50.840;4.386;2023-04-24T07:06:37;23.10;;;12.88;;
39674;SDS011;27790;50.840;4.386;2023-04-24T07:09:02;23.50;;;12.95;;
39674;SDS011;27790;50.840;4.386;2023-04-24T07:11:28;24.80;;;13.07;;
39674;SDS011;27790;50.840;4.386;2023-04-24T07:13:54;16.20;;;12.05;;
39674;SDS011;27790;50.840;4.386;2023-04-24T07:16:20;25.45;;;12.35;;
39674;SDS011;27790;50.840;4.386;2023-04-24T07:18:46;25.45;;;12.43;;
39674;SDS011;27790;50.840;4.386;2023-04-24T07:21:11;21.30;;;12.20;;
39674;SDS011;27790;50.840;4.386;2023-04-24T07:23:37;17.40;;;11.35;;
39674;SDS011;27790;50.840;4.386;2023-04-24T07:26:03;16.05;;;10.02;;
39674;SDS011;27790;50.840;4.386;2023-04-24T07:28:29;23.98;;;11.07;;
39674;SDS011;27790;50.840;4.386;2023-04-24T07:30:57;19.67;;;9.77;;
39674;SDS011;27790;50.840;4.386;2023-04-24T07:33:29;18.85;;;9.77;;
39674;SDS011;27790;50.840;4.386;2023-04-24T07:35:55;22.20;;;10.10;;
39674;SDS011;27790;50.840;4.386;2023-04-24T07:38:21;16.80;;;8.43;;
39674;SDS011;27790;50.840;4.386;2023-04-24T07:40:51;18.00;;;8.15;;
39674;SDS011;27790;50.840;4.386;2023-04-24T07:43:17;20.23;;;8.85;;
39674;SDS011;27790;50.840;4.386;2023-04-24T07:45:46;15.50;;;8.68;;
39674;SDS011;27790;50.840;4.386;2023-04-24T07:48:12;16.83;;;8.98;;
39674;SDS011;27790;50.840;4.386;2023-04-24T07:50:42;17.15;;;9.88;;
39674;SDS011;27790;50.840;4.386;2023-04-24T07:53:07;24.00;;;10.63;;
39674;SDS011;27790;50.840;4.386;2023-04-24T07:55:33;19.15;;;10.68;;
39674;SDS011;27790;50.840;4.386;2023-04-24T07:57:58;23.70;;;10.70;;
39674;SDS011;27790;50.840;4.386;2023-04-24T08:00:24;24.45;;;10.43;;
39674;SDS011;27790;50.840;4.386;2023-04-24T08:02:53;19.17;;;9.13;;
39674;SDS011;27790;50.840;4.386;2023-04-24T08:05:18;17.85;;;10.20;;
39674;SDS011;27790;50.840;4.386;2023-04-24T08:07:45;16.65;;;9.02;;
39674;SDS011;27790;50.840;4.386;2023-04-24T08:10:13;18.40;;;9.38;;
39674;SDS011;27790;50.840;4.386;2023-04-24T08:12:40;22.20;;;9.07;;
39674;SDS011;27790;50.840;4.386;2023-04-24T08:15:06;18.90;;;9.57;;
39674;SDS011;27790;50.840;4.386;2023-04-24T08:17:33;18.45;;;8.57;;
39674;SDS011;27790;50.840;4.386;2023-04-24T08:20:04;15.18;;;7.75;;
39674;SDS011;27790;50.840;4.386;2023-04-24T08:22:30;18.42;;;7.57;;
39674;SDS011;27790;50.840;4.386;2023-04-24T08:24:56;16.08;;;7.40;;
39674;SDS011;27790;50.840;4.386;2023-04-24T08:27:24;19.45;;;6.72;;
39674;SDS011;27790;50.840;4.386;2023-04-24T08:29:52;17.95;;;8.02;;
39674;SDS011;27790;50.840;4.386;2023-04-24T08:32:18;14.25;;;6.40;;
39674;SDS011;27790;50.840;4.386;2023-04-24T08:34:44;22.23;;;8.45;;
39674;SDS011;27790;50.840;4.386;2023-04-24T08:37:10;24.88;;;7.72;;
39674;SDS011;27790;50.840;4.386;2023-04-24T08:39:38;14.93;;;6.75;;
39674;SDS011;27790;50.840;4.386;2023-04-24T08:42:04;11.95;;;6.22;;
39674;SDS011;27790;50.840;4.386;2023-04-24T08:44:33;11.23;;;5.80;;
39674;SDS011;27790;50.840;4.386;2023-04-24T08:46:59;14.18;;;5.88;;
39674;SDS011;27790;50.840;4.386;2023-04-24T08:49:29;17.08;;;5.95;;
39674;SDS011;27790;50.840;4.386;2023-04-24T08:51:55;11.15;;;6.05;;
39674;SDS011;27790;50.840;4.386;2023-04-24T08:54:21;14.32;;;5.35;;
39674;SDS011;27790;50.840;4.386;2023-04-24T08:56:48;11.15;;;4.65;;
39674;SDS011;27790;50.840;4.386;2023-04-24T08:59:15;8.80;;;5.03;;
39674;SDS011;27790;50.840;4.386;2023-04-24T09:01:41;15.48;;;5.53;;
39674;SDS011;27790;50.840;4.386;2023-04-24T09:04:08;9.18;;;4.93;;
39674;SDS011;27790;50.840;4.386;2023-04-24T09:06:35;10.20;;;4.35;;
39674;SDS011;27790;50.840;4.386;2023-04-24T09:09:02;11.93;;;5.35;;
39674;SDS011;27790;50.840;4.386;2023-04-24T09:11:31;14.18;;;4.80;;
39674;SDS011;27790;50.840;4.386;2023-04-24T09:13:59;8.05;;;4.38;;
39674;SDS011;27790;50.840;4.386;2023-04-24T09:16:29;12.32;;;4.80;;
39674;SDS011;27790;50.840;4.386;2023-04-24T09:18:54;8.32;;;4.07;;
39674;SDS011;27790;50.840;4.386;2023-04-24T09:21:21;9.18;;;4.03;;
39674;SDS011;27790;50.840;4.386;2023-04-24T09:23:47;7.80;;;3.83;;
39674;SDS011;27790;50.840;4.386;2023-04-24T09:26:24;10.20;;;4.18;;
39674;SDS011;27790;50.840;4.386;2023-04-24T09:28:50;10.07;;;4.32;;
39674;SDS011;27790;50.840;4.386;2023-04-24T09:31:17;23.70;;;4.60;;
39674;SDS011;27790;50.840;4.386;2023-04-24T09:33:53;9.30;;;3.83;;
39674;SDS011;27790;50.840;4.386;2023-04-24T09:36:26;6.70;;;4.20;;
39674;SDS011;27790;50.840;4.386;2023-04-24T09:39:00;13.85;;;5.30;;
39674;SDS011;27790;50.840;4.386;2023-04-24T09:41:27;7.30;;;4.10;;
39674;SDS011;27790;50.840;4.386;2023-04-24T09:43:54;5.10;;;3.85;;
39674;SDS011;27790;50.840;4.386;2023-04-24T09:46:20;13.55;;;4.43;;
39674;SDS011;27790;50.840;4.386;2023-04-24T09:48:49;6.57;;;3.28;;
39674;SDS011;27790;50.840;4.386;2023-04-24T09:51:14;14.50;;;4.32;;
39674;SDS011;27790;50.840;4.386;2023-04-24T09:53:44;9.40;;;3.63;;
39674;SDS011;27790;50.840;4.386;2023-04-24T09:56:10;13.45;;;3.95;;
39674;SDS011;27790;50.840;4.386;2023-04-24T09:58:38;7.55;;;3.85;;
39674;SDS011;27790;50.840;4.386;2023-04-24T10:01:04;11.75;;;3.72;;
39674;SDS011;27790;50.840;4.386;2023-04-24T10:03:30;8.57;;;4.65;;
39674;SDS011;27790;50.840;4.386;2023-04-24T10:08:34;7.50;;;3.50;;
39674;SDS011;27790;50.840;4.386;2023-04-24T10:11:01;6.90;;;3.63;;
39674;SDS011;27790;50.840;4.386;2023-04-24T10:13:26;7.82;;;3.15;;
39674;SDS011;27790;50.840;4.386;2023-04-24T10:15:53;5.75;;;2.97;;
39674;SDS011;27790;50.840;4.386;2023-04-24T10:18:20;8.80;;;3.92;;
39674;SDS011;27790;50.840;4.386;2023-04-24T10:20:46;9.50;;;3.67;;
39674;SDS011;27790;50.840;4.386;2023-04-24T10:23:12;8.73;;;3.60;;
39674;SDS011;27790;50.840;4.386;2023-04-24T10:25:39;8.80;;;4.78;;
39674;SDS011;27790;50.840;4.386;2023-04-24T10:28:05;9.02;;;4.20;;
39674;SDS011;27790;50.840;4.386;2023-04-24T10:30:32;9.70;;;4.03;;
39674;SDS011;27790;50.840;4.386;2023-04-24T10:33:00;13.38;;;4.55;;
39674;SDS011;27790;50.840;4.386;2023-04-24T10:35:40;11.45;;;4.38;;
39674;SDS011;27790;50.840;4.386;2023-04-24T10:38:11;13.50;;;4.47;;
39674;SDS011;27790;50.840;4.386;2023-04-24T10:40:38;9.02;;;5.13;;
39674;SDS011;27790;50.840;4.386;2023-04-24T10:43:05;12.02;;;5.25;;
39674;SDS011;27790;50.840;4.386;2023-04-24T10:45:34;17.77;;;5.18;;
39674;SDS011;27790;50.840;4.386;2023-04-24T10:48:07;16.42;;;4.47;;
39674;SDS011;27790;50.840;4.386;2023-04-24T10:53:26;7.88;;;4.32;;
39674;SDS011;27790;50.840;4.386;2023-04-24T10:55:58;11.30;;;5.20;;
39674;SDS011;27790;50.840;4.386;2023-04-24T10:58:44;7.35;;;4.97;;
39674;SDS011;27790;50.840;4.386;2023-04-24T11:01:24;7.53;;;4.65;;
39674;SDS011;27790;50.840;4.386;2023-04-24T11:03:55;10.02;;;4.80;;
39674;SDS011;27790;50.840;4.386;2023-04-24T11:11:44;10.00;;;4.82;;
39674;SDS011;27790;50.840;4.386;2023-04-24T11:14:10;11.98;;;5.50;;
39674;SDS011;27790;50.840;4.386;2023-04-24T11:16:43;12.50;;;5.00;;
39674;SDS011;27790;50.840;4.386;2023-04-24T11:21:44;9.20;;;4.82;;
39674;SDS011;27790;50.840;4.386;2023-04-24T11:27:05;9.40;;;5.22;;
39674;SDS011;27790;50.840;4.386;2023-04-24T11:34:58;6.85;;;4.20;;
39674;SDS011;27790;50.840;4.386;2023-04-24T11:40:28;7.57;;;4.47;;
39674;SDS011;27790;50.840;4.386;2023-04-24T11:42:54;6.47;;;5.00;;
39674;SDS011;27790;50.840;4.386;2023-04-24T11:45:25;8.20;;;4.75;;
39674;SDS011;27790;50.840;4.386;2023-04-24T11:47:52;12.25;;;4.63;;
39674;SDS011;27790;50.840;4.386;2023-04-24T11:50:20;6.55;;;4.60;;
39674;SDS011;27790;50.840;4.386;2023-04-24T11:52:48;8.23;;;4.13;;
39674;SDS011;27790;50.840;4.386;2023-04-24T11:57:50;11.85;;;5.53;;
39674;SDS011;27790;50.840;4.386;2023-04-24T12:00:28;9.15;;;5.00;;
39674;SDS011;27790;50.840;4.386;2023-04-24T12:05:32;9.90;;;5.20;;
39674;SDS011;27790;50.840;4.386;2023-04-24T12:07:58;5.88;;;4.90;;
39674;SDS011;27790;50.840;4.386;2023-04-24T12:10:25;5.75;;;4.25;;
39674;SDS011;27790;50.840;4.386;2023-04-24T12:12:55;6.22;;;4.72;;
39674;SDS011;27790;50.840;4.386;2023-04-24T12:15:22;5.05;;;4.65;;
39674;SDS011;27790;50.840;4.386;2023-04-24T12:17:50;10.52;;;4.80;;
39674;SDS011;27790;50.840;4.386;2023-04-24T12:20:16;9.20;;;4.95;;
39674;SDS011;27790;50.840;4.386;2023-04-24T12:25:21;8.48;;;5.53;;
39674;SDS011;27790;50.840;4.386;2023-04-24T12:28:10;12.73;;;5.72;;
39674;SDS011;27790;50.840;4.386;2023-04-24T12:33:17;6.13;;;4.78;;
39674;SDS011;27790;50.840;4.386;2023-04-24T12:35:44;11.60;;;5.03;;
39674;SDS011;27790;50.840;4.386;2023-04-24T12:38:13;7.47;;;4.50;;
39674;SDS011;27790;50.840;4.386;2023-04-24T12:40:40;7.03;;;4.65;;
39674;SDS011;27790;50.840;4.386;2023-04-24T12:45:44;7.97;;;5.20;;
39674;SDS011;27790;50.840;4.386;2023-04-24T12:48:10;4.72;;;4.13;;
39674;SDS011;27790;50.840;4.386;2023-04-24T12:50:36;7.22;;;3.90;;
39674;SDS011;27790;50.840;4.386;2023-04-24T12:53:03;7.78;;;3.45;;
39674;SDS011;27790;50.840;4.386;2023-04-24T12:55:29;8.55;;;4.43;;
39674;SDS011;27790;50.840;4.386;2023-04-24T12:57:56;7.43;;;4.47;;
39674;SDS011;27790;50.840;4.386;2023-04-24T13:00:21;7.28;;;4.40;;
39674;SDS011;27790;50.840;4.386;2023-04-24T13:02:47;6.25;;;4.22;;
39674;SDS011;27790;50.840;4.386;2023-04-24T13:05:13;6.13;;;3.88;;
39674;SDS011;27790;50.840;4.386;2023-04-24T13:07:39;7.57;;;4.18;;
39674;SDS011;27790;50.840;4.386;2023-04-24T13:10:04;7.90;;;3.78;;
39674;SDS011;27790;50.840;4.386;2023-04-24T13:12:31;6.47;;;3.60;;
39674;SDS011;27790;50.840;4.386;2023-04-24T13:14:57;4.47;;;3.75;;
39674;SDS011;27790;50.840;4.386;2023-04-24T13:17:23;4.57;;;3.70;;
39674;SDS011;27790;50.840;4.386;2023-04-24T13:19:49;5.80;;;3.70;;
39674;SDS011;27790;50.840;4.386;2023-04-24T13:22:19;6.97;;;3.13;;
39674;SDS011;27790;50.840;4.386;2023-04-24T13:24:45;11.38;;;3.00;;
39674;SDS011;27790;50.840;4.386;2023-04-24T13:27:13;5.53;;;3.03;;
39674;SDS011;27790;50.840;4.386;2023-04-24T13:29:40;4.78;;;3.03;;
39674;SDS011;27790;50.840;4.386;2023-04-24T13:32:06;7.18;;;3.35;;
39674;SDS011;27790;50.840;4.386;2023-04-24T13:34:32;10.73;;;4.05;;
39674;SDS011;27790;50.840;4.386;2023-04-24T13:36:59;6.05;;;3.35;;
39674;SDS011;27790;50.840;4.386;2023-04-24T13:39:25;7.00;;;2.83;;
39674;SDS011;27790;50.840;4.386;2023-04-24T13:41:51;5.30;;;3.30;;
39674;SDS011;27790;50.840;4.386;2023-04-24T13:44:17;6.13;;;3.00;;
39674;SDS011;27790;50.840;4.386;2023-04-24T13:46:45;7.53;;;2.88;;
39674;SDS011;27790;50.840;4.386;2023-04-24T13:49:13;5.50;;;2.70;;
39674;SDS011;27790;50.840;4.386;2023-04-24T13:51:39;5.03;;;2.80;;
39674;SDS011;27790;50.840;4.386;2023-04-24T13:54:06;4.32;;;2.90;;
39674;SDS011;27790;50.840;4.386;2023-04-24T13:56:31;5.18;;;2.90;;
39674;SDS011;27790;50.840;4.386;2023-04-24T13:58:57;4.05;;;2.35;;
39674;SDS011;27790;50.840;4.386;2023-04-24T14:01:23;3.13;;;2.78;;
39674;SDS011;27790;50.840;4.386;2023-04-24T14:03:50;5.88;;;2.70;;
39674;SDS011;27790;50.840;4.386;2023-04-24T14:06:16;5.28;;;2.50;;
39674;SDS011;27790;50.840;4.386;2023-04-24T14:08:43;4.43;;;2.22;;
39674;SDS011;27790;50.840;4.386;2023-04-24T14:11:08;7.20;;;3.13;;
39674;SDS011;27790;50.840;4.386;2023-04-24T14:13:35;7.85;;;2.95;;
39674;SDS011;27790;50.840;4.386;2023-04-24T14:16:01;4.85;;;1.80;;
39674;SDS011;27790;50.840;4.386;2023-04-24T14:18:27;3.85;;;1.67;;
39674;SDS011;27790;50.840;4.386;2023-04-24T14:20:53;3.78;;;1.80;;
39674;SDS011;27790;50.840;4.386;2023-04-24T14:23:19;9.73;;;2.47;;
39674;SDS011;27790;50.840;4.386;2023-04-24T14:25:45;9.18;;;2.25;;
39674;SDS011;27790;50.840;4.386;2023-04-24T14:28:11;4.32;;;1.95;;
39674;SDS011;27790;50.840;4.386;2023-04-24T14:30:36;3.47;;;1.92;;
39674;SDS011;27790;50.840;4.386;2023-04-24T14:33:02;6.20;;;1.60;;
39674;SDS011;27790;50.840;4.386;2023-04-24T14:35:29;3.80;;;1.77;;
39674;SDS011;27790;50.840;4.386;2023-04-24T14:37:56;4.57;;;1.63;;
39674;SDS011;27790;50.840;4.386;2023-04-24T14:40:22;5.22;;;1.50;;
39674;SDS011;27790;50.840;4.386;2023-04-24T14:42:47;2.92;;;2.13;;
39674;SDS011;27790;50.840;4.386;2023-04-24T14:45:13;3.50;;;1.65;;
39674;SDS011;27790;50.840;4.386;2023-04-24T14:47:39;7.78;;;2.83;;
39674;SDS011;27790;50.840;4.386;2023-04-24T14:50:05;4.25;;;2.28;;
39674;SDS011;27790;50.840;4.386;2023-04-24T14:52:32;2.45;;;1.63;;
39674;SDS011;27790;50.840;4.386;2023-04-24T14:54:57;6.50;;;1.77;;
39674;SDS011;27790;50.840;4.386;2023-04-24T14:57:23;3.65;;;1.52;;
39674;SDS011;27790;50.840;4.386;2023-04-24T14:59:49;5.85;;;2.50;;
39674;SDS011;27790;50.840;4.386;2023-04-24T15:02:14;5.50;;;1.80;;
39674;SDS011;27790;50.840;4.386;2023-04-24T15:04:40;9.23;;;2.25;;
39674;SDS011;27790;50.840;4.386;2023-04-24T15:07:06;6.72;;;1.70;;
39674;SDS011;27790;50.840;4.386;2023-04-24T15:09:31;6.20;;;2.40;;